Time;durP1;ratioP1;P1;durP2;ratioP2;P2;SDS_P1;SDS_P2;PMS_P1;PMS_P2;Temp;Humidity;BMP_temperature;BMP_pressure;BME280_temperature;BME280_humidity;BME280_pressure;Samples;Min_cycle;Max_cycle;Signal;HPM_P1;HPM_P2
2023/12/24 00:01:44;;;;;;;0.30;0.30;;;0.90;99.90;;;;;;6195369;23;20204;-82
2023/12/24 00:04:11;;;;;;;0.70;0.70;;;0.90;99.90;;;;;;6220391;23;20512;-79
2023/12/24 00:06:38;;;;;;;0.40;0.40;;;0.80;99.90;;;;;;6221146;23;20235;-80
2023/12/24 00:09:05;;;;;;;0.40;0.40;;;0.80;99.90;;;;;;6219695;23;20318;-80
2023/12/24 00:11:32;;;;;;;0.40;0.40;;;0.80;99.90;;;;;;6219417;23;20185;-78
2023/12/24 00:13:59;;;;;;;1.15;1.15;;;0.80;99.90;;;;;;6219204;23;20459;-78
2023/12/24 00:16:26;;;;;;;0.40;0.40;;;0.70;99.90;;;;;;6218924;23;20176;-78
2023/12/24 00:18:53;;;;;;;0.50;0.50;;;0.70;99.90;;;;;;6192532;23;20188;-80
2023/12/24 00:21:21;;;;;;;0.40;0.40;;;0.70;99.90;;;;;;6219595;23;20203;-79
2023/12/24 00:23:49;;;;;;;0.40;0.40;;;0.60;99.90;;;;;;6218571;23;20180;-79
2023/12/24 00:26:16;;;;;;;0.30;0.30;;;0.60;99.90;;;;;;6219311;23;20364;-79
2023/12/24 00:28:44;;;;;;;0.40;0.40;;;0.60;99.90;;;;;;6219383;23;20189;-80
2023/12/24 00:31:11;;;;;;;0.30;0.30;;;0.50;99.90;;;;;;6218339;23;20558;-81
2023/12/24 00:33:38;;;;;;;0.40;0.40;;;0.60;99.90;;;;;;6218763;23;20247;-80
2023/12/24 00:36:05;;;;;;;0.40;0.40;;;0.60;99.90;;;;;;6219803;23;20191;-79
2023/12/24 00:38:33;;;;;;;0.40;0.40;;;0.50;99.90;;;;;;6219800;23;20255;-82
2023/12/24 00:41:00;;;;;;;0.30;0.30;;;0.50;99.90;;;;;;6218942;23;20210;-79
2023/12/24 00:43:27;;;;;;;0.40;0.40;;;0.50;99.90;;;;;;6219137;23;20187;-81
2023/12/24 00:45:54;;;;;;;0.40;0.40;;;0.40;99.90;;;;;;6193615;23;20403;-81
2023/12/24 00:48:21;;;;;;;0.40;0.40;;;0.50;99.90;;;;;;6219585;23;20191;-82
2023/12/24 00:50:48;;;;;;;0.65;0.65;;;0.50;99.90;;;;;;6220069;23;20244;-81
2023/12/24 00:53:15;;;;;;;0.40;0.40;;;0.50;99.90;;;;;;6220361;23;20176;-80
2023/12/24 00:55:43;;;;;;;0.40;0.40;;;0.50;99.90;;;;;;6219749;23;20251;-83
2023/12/24 00:58:10;;;;;;;0.40;0.40;;;0.50;99.90;;;;;;6219721;23;20176;-80
2023/12/24 01:00:37;;;;;;;1.48;0.88;;;0.50;99.90;;;;;;6192208;23;20184;-81
2023/12/24 01:03:04;;;;;;;1.17;1.08;;;0.50;99.90;;;;;;6218755;23;20172;-82
2023/12/24 01:05:31;;;;;;;0.50;0.50;;;0.40;99.90;;;;;;6218610;23;20187;-83
2023/12/24 01:07:58;;;;;;;0.45;0.45;;;0.40;99.90;;;;;;6218191;23;20230;-78
2023/12/24 01:10:25;;;;;;;1.60;1.50;;;0.40;99.90;;;;;;6191601;23;20215;-80
2023/12/24 01:12:52;;;;;;;0.40;0.40;;;0.50;99.90;;;;;;6218628;23;20226;-82
2023/12/24 01:15:20;;;;;;;0.40;0.40;;;0.40;99.90;;;;;;6218545;23;20244;-82
2023/12/24 01:17:47;;;;;;;0.40;0.40;;;0.40;99.90;;;;;;6218085;23;20184;-83
2023/12/24 01:20:15;;;;;;;0.40;0.40;;;0.40;99.90;;;;;;6218188;23;20192;-82
2023/12/24 01:22:43;;;;;;;0.40;0.40;;;0.50;99.90;;;;;;6219027;23;20200;-80
2023/12/24 01:25:10;;;;;;;0.30;0.30;;;0.50;99.90;;;;;;6218766;23;20423;-82
2023/12/24 01:27:37;;;;;;;0.40;0.40;;;0.40;99.90;;;;;;6192527;23;20187;-82
2023/12/24 01:30:04;;;;;;;0.50;0.50;;;0.40;99.90;;;;;;6218718;23;20175;-84
2023/12/24 01:32:31;;;;;;;0.40;0.40;;;0.40;99.90;;;;;;6218587;23;20191;-82
2023/12/24 01:34:59;;;;;;;1.05;1.05;;;0.40;99.90;;;;;;6218139;23;20259;-83
2023/12/24 01:37:26;;;;;;;0.55;0.55;;;0.40;99.90;;;;;;6217553;23;20183;-81
2023/12/24 01:39:53;;;;;;;0.40;0.40;;;0.30;99.90;;;;;;6217437;23;20268;-80
2023/12/24 01:42:20;;;;;;;0.98;0.98;;;0.40;99.90;;;;;;6217447;23;20303;-82
2023/12/24 01:44:47;;;;;;;2.08;1.38;;;0.30;99.90;;;;;;6217603;23;20200;-80
2023/12/24 01:47:14;;;;;;;0.40;0.40;;;0.30;99.90;;;;;;6217955;23;20165;-82
2023/12/24 01:49:41;;;;;;;0.50;0.50;;;0.30;99.90;;;;;;6219220;23;20373;-80
2023/12/24 01:52:08;;;;;;;0.82;0.82;;;0.40;99.90;;;;;;6218798;23;20185;-81
2023/12/24 01:54:35;;;;;;;1.40;1.17;;;0.40;99.90;;;;;;6218564;23;20219;-81
2023/12/24 01:57:04;;;;;;;0.63;0.63;;;0.30;99.90;;;;;;6219008;23;20217;-81
2023/12/24 01:59:31;;;;;;;0.57;0.57;;;0.30;99.90;;;;;;6218732;23;20184;-81
2023/12/24 02:01:58;;;;;;;0.40;0.40;;;0.40;99.90;;;;;;6193551;23;20196;-80
2023/12/24 02:04:25;;;;;;;0.40;0.40;;;0.40;99.90;;;;;;6219896;23;20184;-80
2023/12/24 02:06:52;;;;;;;0.75;0.75;;;0.30;99.90;;;;;;6219859;23;20202;-81
2023/12/24 02:09:19;;;;;;;1.52;1.42;;;0.40;99.90;;;;;;6221108;23;20215;-79
2023/12/24 02:11:46;;;;;;;3.25;2.15;;;0.30;99.90;;;;;;6219593;23;20184;-81
2023/12/24 02:14:13;;;;;;;0.40;0.40;;;0.30;99.90;;;;;;6220107;23;20191;-81
2023/12/24 02:16:46;;;;;;;0.60;0.60;;;0.30;99.90;;;;;;6220208;23;20207;-80
2023/12/24 02:19:20;;;;;;;0.40;0.40;;;0.40;99.90;;;;;;6220400;23;20165;-79
2023/12/24 02:21:47;;;;;;;0.40;0.40;;;0.40;99.90;;;;;;6220345;23;20562;-81
2023/12/24 02:24:15;;;;;;;0.40;0.40;;;0.30;99.90;;;;;;6220135;23;20243;-82
2023/12/24 02:26:52;;;;;;;0.50;0.50;;;0.40;99.90;;;;;;6220074;23;20535;-82
2023/12/24 02:29:26;;;;;;;0.40;0.40;;;0.40;99.90;;;;;;6194015;23;20255;-81
2023/12/24 02:32:03;;;;;;;0.40;0.40;;;0.40;99.90;;;;;;6220246;23;20211;-79
2023/12/24 02:34:31;;;;;;;0.77;0.77;;;0.40;99.90;;;;;;6193723;23;20172;-79
2023/12/24 02:36:58;;;;;;;0.50;0.50;;;0.40;99.90;;;;;;6219988;23;20430;-80
2023/12/24 02:39:25;;;;;;;0.40;0.40;;;0.40;99.90;;;;;;6220480;23;20180;-80
2023/12/24 02:41:52;;;;;;;0.38;0.38;;;0.40;99.90;;;;;;6220235;23;20267;-78
2023/12/24 02:44:19;;;;;;;0.60;0.52;;;0.40;99.90;;;;;;6220009;23;20183;-80
2023/12/24 02:46:46;;;;;;;0.40;0.40;;;0.40;99.90;;;;;;6220525;23;20188;-80
2023/12/24 02:49:14;;;;;;;1.30;1.25;;;0.40;99.90;;;;;;6219816;23;20180;-79
2023/12/24 02:51:41;;;;;;;1.15;1.15;;;0.40;99.90;;;;;;6193728;23;20411;-78
2023/12/24 02:54:08;;;;;;;0.50;0.50;;;0.40;99.90;;;;;;6219893;23;20184;-79
2023/12/24 02:56:36;;;;;;;1.95;1.85;;;0.40;99.90;;;;;;6193921;23;20211;-78
2023/12/24 02:59:03;;;;;;;0.40;0.40;;;0.40;99.90;;;;;;6219371;23;20239;-80
2023/12/24 03:01:31;;;;;;;1.25;1.25;;;0.40;99.90;;;;;;6219551;23;20283;-78
2023/12/24 03:04:02;;;;;;;0.80;0.80;;;0.40;99.90;;;;;;6220052;23;20243;-80
2023/12/24 03:06:29;;;;;;;0.52;0.52;;;0.40;99.90;;;;;;6220357;23;20168;-79
2023/12/24 03:08:57;;;;;;;4.00;2.25;;;0.40;99.90;;;;;;6220628;23;20380;-78
2023/12/24 03:11:25;;;;;;;1.40;1.00;;;0.40;99.90;;;;;;6219774;23;20180;-80
2023/12/24 03:13:52;;;;;;;0.40;0.40;;;0.40;99.90;;;;;;6193920;23;20184;-79
2023/12/24 03:16:19;;;;;;;0.40;0.40;;;0.40;99.90;;;;;;6220001;23;20535;-80
2023/12/24 03:18:46;;;;;;;0.50;0.50;;;0.40;99.90;;;;;;6220172;23;20240;-79
2023/12/24 03:21:13;;;;;;;0.40;0.40;;;0.40;99.90;;;;;;6219991;23;20184;-80
2023/12/24 03:23:40;;;;;;;1.17;1.15;;;0.40;99.90;;;;;;6219858;23;20173;-80
2023/12/24 03:26:20;;;;;;;0.85;0.85;;;0.40;99.90;;;;;;6219929;23;20350;-80
2023/12/24 03:28:51;;;;;;;1.60;1.50;;;0.40;99.90;;;;;;6219234;23;20203;-79
2023/12/24 03:31:19;;;;;;;1.67;1.52;;;0.40;99.90;;;;;;6220134;23;20181;-80
2023/12/24 03:33:46;;;;;;;0.38;0.38;;;0.40;99.90;;;;;;6220401;23;20215;-79
2023/12/24 03:36:13;;;;;;;0.50;0.50;;;0.40;99.90;;;;;;6219908;23;20240;-81
2023/12/24 03:38:41;;;;;;;0.50;0.50;;;0.30;99.90;;;;;;6232026;23;20168;-80
2023/12/24 03:41:08;;;;;;;1.00;1.00;;;0.30;99.90;;;;;;6236546;23;20233;-80
2023/12/24 03:43:35;;;;;;;0.95;0.95;;;0.40;99.90;;;;;;6237276;23;20222;-80
2023/12/24 03:46:03;;;;;;;0.40;0.40;;;0.40;99.90;;;;;;6229979;23;20207;-79
2023/12/24 03:48:35;;;;;;;1.48;1.38;;;0.40;99.90;;;;;;6220000;23;20271;-79
2023/12/24 03:51:03;;;;;;;0.73;0.73;;;0.30;99.90;;;;;;6220457;23;20172;-80
2023/12/24 03:53:30;;;;;;;0.40;0.40;;;0.30;99.90;;;;;;6219961;23;20398;-79
2023/12/24 03:55:57;;;;;;;0.40;0.40;;;0.30;99.90;;;;;;6219942;23;20179;-80
2023/12/24 03:58:24;;;;;;;0.43;0.43;;;0.30;99.90;;;;;;6219568;23;20172;-81
2023/12/24 04:00:51;;;;;;;0.40;0.40;;;0.30;99.90;;;;;;6219531;23;20488;-79
2023/12/24 04:03:18;;;;;;;0.40;0.40;;;0.30;99.90;;;;;;6219972;23;20208;-80
2023/12/24 04:05:45;;;;;;;0.40;0.40;;;0.30;99.90;;;;;;6219817;23;20409;-79
2023/12/24 04:08:13;;;;;;;0.40;0.40;;;0.30;99.90;;;;;;6219412;23;20176;-81
2023/12/24 04:10:41;;;;;;;0.68;0.68;;;0.30;99.90;;;;;;6219777;23;20180;-81
2023/12/24 04:13:11;;;;;;;0.40;0.40;;;0.30;99.90;;;;;;6219397;23;20740;-80
2023/12/24 04:15:38;;;;;;;0.40;0.40;;;0.30;99.90;;;;;;6195254;23;20350;-79
2023/12/24 04:18:06;;;;;;;0.70;0.70;;;0.40;99.90;;;;;;6223624;23;20309;-81
2023/12/24 04:20:33;;;;;;;0.57;0.57;;;0.30;99.90;;;;;;6237325;22;20175;-80
2023/12/24 04:23:00;;;;;;;0.40;0.40;;;0.30;99.90;;;;;;6237647;22;20211;-80
2023/12/24 04:25:27;;;;;;;0.40;0.40;;;0.30;99.90;;;;;;6237684;23;20228;-82
2023/12/24 04:27:54;;;;;;;0.40;0.40;;;0.30;99.90;;;;;;6231169;22;20239;-79
2023/12/24 04:30:21;;;;;;;0.50;0.50;;;0.30;99.90;;;;;;6194014;23;20248;-81
2023/12/24 04:32:48;;;;;;;0.40;0.40;;;0.30;99.90;;;;;;6219551;23;20178;-79
2023/12/24 04:35:15;;;;;;;0.70;0.70;;;0.30;99.90;;;;;;6219118;23;20172;-79
2023/12/24 04:37:42;;;;;;;0.55;0.55;;;0.30;99.90;;;;;;6218701;23;20180;-80
2023/12/24 04:40:10;;;;;;;2.25;1.58;;;0.30;99.90;;;;;;6218896;23;20292;-78
2023/12/24 04:42:37;;;;;;;0.40;0.40;;;0.30;99.90;;;;;;6218277;23;20477;-79
2023/12/24 04:45:04;;;;;;;0.88;0.88;;;0.30;99.90;;;;;;6218549;23;20527;-79
2023/12/24 04:47:31;;;;;;;2.25;1.23;;;0.30;99.90;;;;;;6192670;23;20397;-79
2023/12/24 04:49:59;;;;;;;0.40;0.40;;;0.30;99.90;;;;;;6219384;23;20186;-79
2023/12/24 04:52:26;;;;;;;0.40;0.40;;;0.30;99.90;;;;;;6218981;23;20251;-80
2023/12/24 04:54:53;;;;;;;0.40;0.40;;;0.30;99.90;;;;;;6218412;23;20493;-80
2023/12/24 04:57:21;;;;;;;0.40;0.40;;;0.30;99.90;;;;;;6218607;23;20424;-79
2023/12/24 04:59:48;;;;;;;0.60;0.60;;;0.30;99.90;;;;;;6218563;23;20187;-79
2023/12/24 05:02:15;;;;;;;0.80;0.80;;;0.30;99.90;;;;;;6192511;23;20263;-79
2023/12/24 05:04:41;;;;;;;0.40;0.40;;;0.30;99.90;;;;;;6218117;23;20181;-80
2023/12/24 05:07:09;;;;;;;1.70;1.60;;;0.30;99.90;;;;;;6192313;23;20207;-79
2023/12/24 05:09:39;;;;;;;0.50;0.50;;;0.40;99.90;;;;;;6192568;23;20448;-79
2023/12/24 05:12:09;;;;;;;0.50;0.50;;;0.30;99.90;;;;;;6218069;23;20211;-79
2023/12/24 05:14:37;;;;;;;0.63;0.63;;;0.30;99.90;;;;;;6218319;23;20211;-80
2023/12/24 05:17:04;;;;;;;1.10;1.10;;;0.30;99.90;;;;;;6191479;23;20488;-80
2023/12/24 05:19:30;;;;;;;0.60;0.60;;;0.30;99.90;;;;;;6219346;23;20209;-79
2023/12/24 05:21:57;;;;;;;1.30;1.30;;;0.30;99.90;;;;;;6218599;23;20202;-79
2023/12/24 05:24:24;;;;;;;20.02;1.40;;;0.30;99.90;;;;;;6218882;23;20218;-80
2023/12/24 05:26:52;;;;;;;0.40;0.40;;;0.30;99.90;;;;;;6218352;23;20239;-80
2023/12/24 05:29:18;;;;;;;0.50;0.50;;;0.30;99.90;;;;;;6218305;23;20208;-80
2023/12/24 05:31:45;;;;;;;0.52;0.52;;;0.30;99.90;;;;;;6218163;23;20262;-81
2023/12/24 05:34:12;;;;;;;0.50;0.50;;;0.30;99.90;;;;;;6218165;23;20236;-80
2023/12/24 05:36:39;;;;;;;0.75;0.75;;;0.30;99.90;;;;;;6219736;23;20180;-80
2023/12/24 05:39:07;;;;;;;0.80;0.80;;;0.30;99.90;;;;;;6219509;23;20207;-81
2023/12/24 05:41:34;;;;;;;0.50;0.50;;;0.20;99.90;;;;;;6219714;23;20187;-80
2023/12/24 05:44:00;;;;;;;0.50;0.50;;;0.20;99.90;;;;;;6219861;23;20200;-83
2023/12/24 05:46:27;;;;;;;1.35;0.68;;;0.30;99.90;;;;;;6220360;23;20530;-80
2023/12/24 05:48:54;;;;;;;0.40;0.40;;;0.30;99.90;;;;;;6219957;23;20208;-82
2023/12/24 05:51:21;;;;;;;0.40;0.40;;;0.30;99.90;;;;;;6219872;23;20227;-83
2023/12/24 05:53:49;;;;;;;1.20;1.15;;;0.20;99.90;;;;;;6220548;23;20191;-82
2023/12/24 05:56:16;;;;;;;0.40;0.40;;;0.20;99.90;;;;;;6219971;23;20211;-79
2023/12/24 05:58:43;;;;;;;0.40;0.40;;;0.20;99.90;;;;;;6219493;23;20248;-79
2023/12/24 06:01:10;;;;;;;0.45;0.45;;;0.20;99.90;;;;;;6221237;23;20236;-80
2023/12/24 06:03:37;;;;;;;0.40;0.40;;;0.20;99.90;;;;;;6220562;23;20263;-77
2023/12/24 06:06:05;;;;;;;1.25;1.23;;;0.20;99.90;;;;;;6220736;23;20554;-79
2023/12/24 06:08:32;;;;;;;15.73;1.58;;;0.20;99.90;;;;;;6220484;23;20173;-80
2023/12/24 06:10:59;;;;;;;0.73;0.73;;;0.20;99.90;;;;;;6220253;23;20226;-79
2023/12/24 06:13:25;;;;;;;0.40;0.40;;;0.30;99.90;;;;;;6220168;23;20188;-80
2023/12/24 06:15:52;;;;;;;0.63;0.63;;;0.30;99.90;;;;;;6219362;23;20516;-80
2023/12/24 06:18:19;;;;;;;0.40;0.40;;;0.30;99.90;;;;;;6193347;23;20369;-84
2023/12/24 06:20:46;;;;;;;0.73;0.73;;;0.20;99.90;;;;;;6219801;23;20252;-81
2023/12/24 06:23:14;;;;;;;1.08;1.05;;;0.30;99.90;;;;;;6219662;23;20196;-81
2023/12/24 06:25:40;;;;;;;0.40;0.40;;;0.20;99.90;;;;;;6193831;23;20180;-84
2023/12/24 06:28:08;;;;;;;0.50;0.50;;;0.20;99.90;;;;;;6194208;23;20251;-86
2023/12/24 06:30:35;;;;;;;0.40;0.40;;;0.30;99.90;;;;;;6220829;23;20180;-82
2023/12/24 06:33:02;;;;;;;0.40;0.40;;;0.30;99.90;;;;;;6194122;23;20191;-83
2023/12/24 06:35:29;;;;;;;0.95;0.95;;;0.30;99.90;;;;;;6219993;23;20184;-81
2023/12/24 06:37:57;;;;;;;0.50;0.50;;;0.30;99.90;;;;;;6224813;23;20359;-84
2023/12/24 06:40:24;;;;;;;3.53;1.58;;;0.30;99.90;;;;;;6228941;23;20181;-84
2023/12/24 06:42:51;;;;;;;0.77;0.77;;;0.30;99.90;;;;;;6224421;23;20228;-82
2023/12/24 06:45:19;;;;;;;0.35;0.35;;;0.40;99.90;;;;;;6220275;23;20219;-81
2023/12/24 06:47:46;;;;;;;1.40;1.30;;;0.30;99.90;;;;;;6219572;23;20176;-83
2023/12/24 06:50:13;;;;;;;1.55;1.52;;;0.30;99.90;;;;;;6219580;23;20205;-85
2023/12/24 06:52:41;;;;;;;0.40;0.40;;;0.30;99.90;;;;;;6221444;23;20165;-84
2023/12/24 06:55:08;;;;;;;0.93;0.93;;;0.30;99.90;;;;;;6221151;23;20204;-79
2023/12/24 06:57:35;;;;;;;1.15;1.13;;;0.30;99.90;;;;;;6220018;23;20176;-80
2023/12/24 07:00:05;;;;;;;2.42;2.33;;;0.30;99.90;;;;;;6195403;23;20191;-83
2023/12/24 07:02:32;;;;;;;1.35;1.25;;;0.30;99.90;;;;;;6222637;23;20204;-83
2023/12/24 07:04:59;;;;;;;1.50;1.25;;;0.40;99.90;;;;;;6220548;23;20223;-81
2023/12/24 07:07:26;;;;;;;0.40;0.40;;;0.30;99.90;;;;;;6219881;23;20184;-85
2023/12/24 07:09:53;;;;;;;0.70;0.70;;;0.30;99.90;;;;;;6220154;23;20180;-83
2023/12/24 07:12:28;;;;;;;0.40;0.40;;;0.30;99.90;;;;;;6219150;23;20169;-84
2023/12/24 07:14:55;;;;;;;1.60;0.95;;;0.30;99.90;;;;;;6220255;23;20239;-84
2023/12/24 07:17:22;;;;;;;0.82;0.82;;;0.40;99.90;;;;;;6219640;23;20208;-83
2023/12/24 07:19:50;;;;;;;0.43;0.43;;;0.30;99.90;;;;;;6196477;23;20420;-82
2023/12/24 07:22:18;;;;;;;0.82;0.82;;;0.30;99.90;;;;;;6221690;23;20184;-80
2023/12/24 07:24:45;;;;;;;0.70;0.70;;;0.30;99.90;;;;;;6221120;23;20239;-81
2023/12/24 07:27:12;;;;;;;0.40;0.40;;;0.30;99.90;;;;;;6221306;23;20187;-84
2023/12/24 07:29:42;;;;;;;1.05;1.05;;;0.40;99.90;;;;;;6221501;23;20385;-84
2023/12/24 07:32:10;;;;;;;1.83;1.63;;;0.40;99.90;;;;;;6220289;23;20469;-83
2023/12/24 07:34:37;;;;;;;0.55;0.55;;;0.40;99.90;;;;;;6219650;23;20180;-83
2023/12/24 07:37:04;;;;;;;0.50;0.50;;;0.40;99.90;;;;;;6220108;23;20270;-85
2023/12/24 07:39:34;;;;;;;2.70;2.50;;;0.40;99.90;;;;;;6220122;23;20369;-81
2023/12/24 07:42:02;;;;;;;1.00;0.93;;;0.40;99.90;;;;;;6219455;23;20181;-80
2023/12/24 07:44:30;;;;;;;1.52;1.52;;;0.40;99.90;;;;;;6219590;23;20227;-78
2023/12/24 07:46:56;;;;;;;0.95;0.95;;;0.40;99.90;;;;;;6218364;23;20188;-78
2023/12/24 07:49:26;;;;;;;0.80;0.80;;;0.50;99.90;;;;;;6219796;23;20369;-82
2023/12/24 07:51:52;;;;;;;0.73;0.73;;;0.50;99.90;;;;;;6219877;23;20183;-80
2023/12/24 07:54:20;;;;;;;1.95;1.60;;;0.50;99.90;;;;;;6221956;23;20232;-80
2023/12/24 07:56:46;;;;;;;0.40;0.40;;;0.40;99.90;;;;;;6220286;23;20184;-81
2023/12/24 07:59:13;;;;;;;1.85;1.50;;;0.50;99.90;;;;;;6219201;23;20207;-81
2023/12/24 08:01:41;;;;;;;1.38;1.27;;;0.40;99.90;;;;;;6219318;23;20646;-81
2023/12/24 08:04:08;;;;;;;0.40;0.40;;;0.50;99.90;;;;;;6218477;23;20205;-80
2023/12/24 08:06:35;;;;;;;1.40;1.30;;;0.50;99.90;;;;;;6193341;23;20180;-83
2023/12/24 08:09:03;;;;;;;0.80;0.80;;;0.50;99.90;;;;;;6219277;23;20179;-83
2023/12/24 08:11:30;;;;;;;0.82;0.82;;;0.40;99.90;;;;;;6220264;23;20264;-83
2023/12/24 08:13:57;;;;;;;0.77;0.77;;;0.40;99.90;;;;;;6221117;23;20207;-83
2023/12/24 08:16:24;;;;;;;0.63;0.63;;;0.50;99.90;;;;;;6193205;23;20500;-83
2023/12/24 08:18:51;;;;;;;1.45;1.35;;;0.50;99.90;;;;;;6221095;23;20176;-82
2023/12/24 08:21:18;;;;;;;1.00;0.95;;;0.60;99.90;;;;;;6219932;23;20184;-79
2023/12/24 08:23:45;;;;;;;1.35;1.25;;;0.60;99.90;;;;;;6226176;23;20184;-81
2023/12/24 08:26:12;;;;;;;0.60;0.60;;;0.50;99.90;;;;;;6238124;22;20208;-80
2023/12/24 08:28:40;;;;;;;0.63;0.63;;;0.50;99.90;;;;;;6238481;23;20195;-82
2023/12/24 08:31:07;;;;;;;1.10;1.02;;;0.50;99.90;;;;;;6211469;23;20180;-85
2023/12/24 08:33:37;;;;;;;0.70;0.70;;;0.60;99.90;;;;;;6223544;23;20180;-84
2023/12/24 08:36:06;;;;;;;0.60;0.60;;;0.60;99.90;;;;;;6197374;23;20228;-87
2023/12/24 08:38:33;;;;;;;0.40;0.40;;;0.60;99.90;;;;;;6224470;23;20187;-82
2023/12/24 08:41:00;;;;;;;0.40;0.40;;;0.60;99.90;;;;;;6225153;23;20168;-84
2023/12/24 08:43:27;;;;;;;1.55;1.55;;;0.60;99.90;;;;;;6222678;23;20204;-87
2023/12/24 08:45:59;;;;;;;0.40;0.40;;;0.70;99.90;;;;;;6224078;23;20240;-82
2023/12/24 08:48:26;;;;;;;3.45;3.17;;;0.60;99.90;;;;;;6196866;23;20229;-84
2023/12/24 08:50:55;;;;;;;0.50;0.50;;;0.70;99.90;;;;;;6223966;23;20417;-85
2023/12/24 08:53:22;;;;;;;0.88;0.88;;;0.70;99.90;;;;;;6222762;23;20184;-83
2023/12/24 08:55:50;;;;;;;2.00;1.38;;;0.70;99.90;;;;;;6240156;22;20176;-85
2023/12/24 08:58:18;;;;;;;0.30;0.30;;;0.70;99.90;;;;;;6242040;22;20188;-84
2023/12/24 09:00:49;;;;;;;0.60;0.60;;;0.70;99.90;;;;;;6241806;22;20191;-83
2023/12/24 09:03:18;;;;;;;0.40;0.40;;;0.80;99.90;;;;;;6237431;22;20220;-84
2023/12/24 09:05:47;;;;;;;0.40;0.40;;;0.80;99.90;;;;;;6231314;23;20182;-85
2023/12/24 09:08:22;;;;;;;0.85;0.85;;;0.80;99.90;;;;;;6202611;23;20429;-80
2023/12/24 09:10:50;;;;;;;0.98;0.98;;;0.80;99.90;;;;;;6227375;23;20176;-83
2023/12/24 09:13:17;;;;;;;0.65;0.65;;;0.90;99.90;;;;;;6234865;22;20227;-83
2023/12/24 09:15:48;;;;;;;1.15;1.13;;;0.80;99.90;;;;;;6237812;23;20168;-83
2023/12/24 09:18:18;;;;;;;1.50;1.15;;;0.90;99.90;;;;;;6237702;23;20179;-81
2023/12/24 09:20:45;;;;;;;0.40;0.40;;;0.90;99.90;;;;;;6237794;23;20177;-83
2023/12/24 09:23:12;;;;;;;0.70;0.70;;;0.90;99.90;;;;;;6235364;23;20509;-85
2023/12/24 09:25:40;;;;;;;0.60;0.60;;;0.90;99.90;;;;;;6236099;23;20195;-84
2023/12/24 09:28:08;;;;;;;0.75;0.75;;;1.00;99.90;;;;;;6208101;23;20173;-86
2023/12/24 09:30:35;;;;;;;12.90;7.13;;;1.00;99.90;;;;;;6235710;23;20307;-81
2023/12/24 09:33:03;;;;;;;3.60;3.03;;;1.00;99.90;;;;;;6227914;23;20191;-81
2023/12/24 09:35:31;;;;;;;6.82;5.18;;;1.00;99.90;;;;;;6199002;23;20227;-86
2023/12/24 09:38:02;;;;;;;6.50;5.88;;;1.00;99.90;;;;;;6219783;23;20214;-83
2023/12/24 09:40:29;;;;;;;22.73;9.27;;;1.00;99.90;;;;;;6194114;23;20180;-86
2023/12/24 09:42:56;;;;;;;16.92;11.00;;;1.10;99.90;;;;;;6222204;23;20164;-87
2023/12/24 09:45:25;;;;;;;11.70;10.73;;;1.20;99.90;;;;;;6222078;23;20211;-88
2023/12/24 09:47:57;;;;;;;4.53;4.10;;;1.20;99.90;;;;;;6220260;23;20190;-84
2023/12/24 09:50:25;;;;;;;0.50;0.50;;;1.40;99.90;;;;;;6220067;23;20186;-85
2023/12/24 09:52:55;;;;;;;7.78;4.38;;;1.40;99.90;;;;;;6220858;23;20181;-88
2023/12/24 09:55:22;;;;;;;1.50;1.40;;;1.40;99.90;;;;;;6220697;23;20180;-84
2023/12/24 09:57:51;;;;;;;11.32;5.40;;;1.50;99.90;;;;;;6192077;23;20190;-83
2023/12/24 10:00:18;;;;;;;6.07;5.53;;;1.50;99.90;;;;;;6220000;23;20184;-83
2023/12/24 10:02:46;;;;;;;4.70;2.25;;;1.60;99.90;;;;;;6219324;23;20187;-83
2023/12/24 10:05:15;;;;;;;2.22;2.08;;;1.60;99.90;;;;;;6220046;23;20165;-82
2023/12/24 10:07:45;;;;;;;2.83;2.65;;;1.70;99.90;;;;;;6219184;23;20559;-84
2023/12/24 10:10:17;;;;;;;3.65;3.13;;;1.80;99.90;;;;;;6232844;23;20211;-82
2023/12/24 10:12:44;;;;;;;5.53;3.83;;;1.80;99.90;;;;;;6236831;22;20160;-82
2023/12/24 10:15:18;;;;;;;3.95;3.67;;;1.90;99.90;;;;;;6236226;22;20184;-84
2023/12/24 10:17:45;;;;;;;4.30;4.00;;;1.90;99.90;;;;;;6229129;23;20168;-86
2023/12/24 10:20:12;;;;;;;2.25;2.15;;;2.00;99.90;;;;;;6223892;23;20180;-87
2023/12/24 10:22:40;;;;;;;2.88;2.63;;;1.90;99.90;;;;;;6222613;23;20390;-84
2023/12/24 10:25:08;;;;;;;2.40;2.30;;;2.00;99.90;;;;;;6222847;23;20284;-84
2023/12/24 10:27:37;;;;;;;6.68;4.28;;;2.20;99.90;;;;;;6221827;23;20196;-84
2023/12/24 10:30:12;;;;;;;4.88;4.60;;;2.10;99.90;;;;;;6220436;23;20182;-86
2023/12/24 10:32:41;;;;;;;3.30;3.03;;;2.20;99.90;;;;;;6221122;23;20171;-86
2023/12/24 10:35:09;;;;;;;3.90;2.35;;;2.50;99.90;;;;;;6223175;23;20177;-83
2023/12/24 10:37:37;;;;;;;1.35;1.35;;;2.50;99.90;;;;;;6220862;23;20206;-86
2023/12/24 10:40:08;;;;;;;0.60;0.60;;;2.60;99.90;;;;;;6196210;23;20193;-85
2023/12/24 10:42:39;;;;;;;3.45;3.30;;;2.70;99.90;;;;;;6224859;23;20172;-85
2023/12/24 10:45:08;;;;;;;2.17;2.08;;;2.90;99.90;;;;;;6222751;23;20198;-82
2023/12/24 10:47:35;;;;;;;3.53;3.05;;;3.00;99.90;;;;;;6220790;23;20176;-84
2023/12/24 10:50:04;;;;;;;5.47;3.80;;;3.20;99.90;;;;;;6222990;23;20180;-83
2023/12/24 10:52:31;;;;;;;2.33;2.22;;;3.40;99.90;;;;;;6222384;23;20187;-86
2023/12/24 10:55:01;;;;;;;1.58;1.50;;;3.40;99.90;;;;;;6223053;23;20180;-86
2023/12/24 10:57:53;;;;;;;2.92;2.80;;;3.30;99.90;;;;;;6221774;23;20714;-83
2023/12/24 11:00:21;;;;;;;1.52;1.45;;;3.50;99.90;;;;;;6222826;23;20239;-87
2023/12/24 11:02:49;;;;;;;4.00;3.80;;;3.40;99.90;;;;;;6220109;23;20184;-83
2023/12/24 11:05:45;;;;;;;1.67;1.67;;;3.50;99.90;;;;;;6197377;23;20204;-82
2023/12/24 11:08:21;;;;;;;2.65;2.45;;;3.50;99.90;;;;;;6223061;23;20199;-86
2023/12/24 11:11:00;;;;;;;2.53;2.42;;;3.50;99.90;;;;;;6229431;23;20190;-85
2023/12/24 11:13:34;;;;;;;2.22;2.13;;;3.70;99.90;;;;;;6225146;23;20252;-85
2023/12/24 11:16:03;;;;;;;3.22;3.13;;;3.70;99.90;;;;;;6223813;23;20251;-85
2023/12/24 11:18:43;;;;;;;2.17;2.10;;;3.80;99.90;;;;;;6223924;23;20184;-84
2023/12/24 11:21:12;;;;;;;3.03;2.92;;;3.90;99.90;;;;;;6223648;23;20227;-83
2023/12/24 11:23:41;;;;;;;6.57;4.40;;;4.10;99.90;;;;;;6222964;23;20197;-86
2023/12/24 11:26:26;;;;;;;0.80;0.80;;;4.10;99.90;;;;;;6223554;23;20176;-84
2023/12/24 11:28:54;;;;;;;1.20;1.20;;;4.30;99.90;;;;;;6223815;23;20180;-86
2023/12/24 11:31:26;;;;;;;0.80;0.80;;;4.40;99.90;;;;;;6224792;23;20385;-85
2023/12/24 11:33:57;;;;;;;2.70;2.53;;;4.70;99.90;;;;;;6225009;23;20176;-83
2023/12/24 11:36:24;;;;;;;0.90;0.90;;;4.60;99.90;;;;;;6225079;23;20181;-85
2023/12/24 11:38:58;;;;;;;1.45;1.40;;;4.90;99.90;;;;;;6224052;23;20184;-86
2023/12/24 11:41:26;;;;;;;1.63;1.58;;;4.90;99.90;;;;;;6224627;23;20415;-86
2023/12/24 11:43:55;;;;;;;0.73;0.73;;;5.00;99.90;;;;;;6223747;23;20193;-84
2023/12/24 11:46:23;;;;;;;0.50;0.50;;;5.10;99.90;;;;;;6221977;23;20189;-85
2023/12/24 11:48:51;;;;;;;0.45;0.45;;;5.10;99.90;;;;;;6224743;23;20220;-84
2023/12/24 11:51:23;;;;;;;0.60;0.60;;;5.20;99.90;;;;;;6237481;23;20168;-86
2023/12/24 11:54:03;;;;;;;0.40;0.40;;;5.20;99.90;;;;;;6250751;22;20187;-85
2023/12/24 11:56:32;;;;;;;1.20;1.20;;;5.20;99.90;;;;;;6261735;23;20159;-86
2023/12/24 11:59:01;;;;;;;2.03;1.83;;;5.30;99.90;;;;;;6238049;22;20182;-87
2023/12/24 12:01:36;;;;;;;3.90;2.80;;;5.30;99.90;;;;;;6261439;23;20220;-88
2023/12/24 12:04:05;;;;;;;0.40;0.40;;;5.40;99.90;;;;;;6260385;23;20191;-87
2023/12/24 12:06:34;;;;;;;1.90;1.80;;;5.40;99.90;;;;;;6229850;23;20213;-88
2023/12/24 12:09:06;;;;;;;1.77;1.67;;;5.40;99.90;;;;;;6256891;23;20179;-86
2023/12/24 12:11:33;;;;;;;0.40;0.40;;;5.20;99.90;;;;;;6260511;23;20164;-86
2023/12/24 12:14:01;;;;;;;1.63;1.58;;;5.40;99.90;;;;;;6264636;23;20203;-85
2023/12/24 12:16:28;;;;;;;0.50;0.50;;;5.60;99.90;;;;;;6238533;23;20183;-86
2023/12/24 12:19:02;;;;;;;1.75;1.35;;;5.50;99.90;;;;;;6258419;23;20194;-88
2023/12/24 12:21:32;;;;;;;0.60;0.60;;;5.70;99.90;;;;;;6230565;23;20210;-87
2023/12/24 12:23:59;;;;;;;1.25;1.20;;;5.60;99.90;;;;;;6256591;23;20203;-88
2023/12/24 12:26:27;;;;;;;0.45;0.45;;;5.50;99.90;;;;;;6260038;23;20235;-88
2023/12/24 12:28:56;;;;;;;1.05;1.05;;;5.50;99.90;;;;;;6235682;23;20176;-85
2023/12/24 12:33:54;;;;;;;0.75;0.75;;;5.60;99.90;;;;;;6225306;22;20219;-87
2023/12/24 12:36:21;;;;;;;0.75;0.75;;;5.60;99.90;;;;;;6251972;22;20191;-87
2023/12/24 12:38:48;;;;;;;0.70;0.70;;;5.50;99.90;;;;;;6267148;22;20217;-86
2023/12/24 12:43:46;;;;;;;0.40;0.40;;;5.60;99.90;;;;;;6241548;22;20195;-87
2023/12/24 12:46:13;;;;;;;0.68;0.68;;;5.60;99.90;;;;;;6226172;22;20222;-88
2023/12/24 12:48:41;;;;;;;0.40;0.40;;;5.70;99.90;;;;;;6266407;23;20175;-87
2023/12/24 12:51:08;;;;;;;0.50;0.50;;;5.70;99.90;;;;;;6263683;22;20180;-87
2023/12/24 12:53:35;;;;;;;0.63;0.63;;;5.80;99.90;;;;;;6264478;23;20164;-87
2023/12/24 12:56:03;;;;;;;1.38;1.27;;;5.80;99.90;;;;;;6239778;23;20182;-89
2023/12/24 12:58:31;;;;;;;0.50;0.50;;;5.90;99.90;;;;;;6239523;22;20186;-90
2023/12/24 13:01:02;;;;;;;0.40;0.40;;;5.90;99.90;;;;;;6241589;22;20183;-88
2023/12/24 13:06:10;;;;;;;0.50;0.50;;;5.90;99.90;;;;;;6197031;22;20215;-88
2023/12/24 13:08:39;;;;;;;1.15;1.15;;;6.00;99.90;;;;;;6220109;22;20365;-87
2023/12/24 13:11:07;;;;;;;0.40;0.40;;;6.00;99.90;;;;;;6266071;22;20393;-89